Time;durP1;ratioP1;P1;durP2;ratioP2;P2;SDS_P1;SDS_P2;PMS_P1;PMS_P2;Temp;Humidity;BMP_temperature;BMP_pressure;BME280_temperature;BME280_humidity;BME280_pressure;Samples;Min_cycle;Max_cycle;Signal;HPM_P1;HPM_P2
2022/02/10 00:07:07;;;;;;;2.95;2.03;;;;;;;5.49;0.00;60892.56;4839626;28;20033;-88
2022/02/10 00:18:37;;;;;;;2.35;1.80;;;;;;;-145.06;0.00;60892.56;4837196;28;20034;-89
2022/02/10 00:21:29;;;;;;;3.05;1.95;;;;;;;5.49;0.00;60892.56;4832524;28;20061;-87
2022/02/10 00:36:06;;;;;;;3.58;2.33;;;;;;;-145.06;0.00;60892.56;4836343;28;20038;-88
2022/02/10 00:38:56;;;;;;;3.17;2.17;;;;;;;-145.06;0.00;60892.56;4840374;28;20357;-88
2022/02/10 00:41:35;;;;;;;2.95;2.40;;;;;;;-145.06;0.00;60892.56;4827636;28;20042;-89
2022/02/10 00:44:15;;;;;;;3.55;2.20;;;;;;;-145.06;0.00;60892.56;4845437;28;20034;-88
2022/02/10 00:46:53;;;;;;;3.30;2.20;;;;;;;-145.06;0.00;60892.56;4839592;28;20030;-88
2022/02/10 00:49:34;;;;;;;3.30;2.10;;;;;;;-145.06;0.00;60892.56;4835017;28;20373;-88
2022/02/10 00:52:14;;;;;;;3.78;2.45;;;;;;;-145.06;0.00;60892.56;4843050;28;20774;-88
2022/02/10 00:54:53;;;;;;;;;;;;;;;-145.06;0.00;60892.56;4833112;28;20034;-88
2022/02/10 00:57:32;;;;;;;2.73;1.77;;;;;;;-145.06;0.00;60892.56;4836327;28;19909;-89
2022/02/10 01:00:38;;;;;;;2.60;1.80;;;;;;;-145.06;0.00;60892.56;4836627;28;20481;-89
2022/02/10 01:29:39;;;;;;;1.35;0.70;;;;;;;-145.06;0.00;60892.56;4828091;28;20038;-88
2022/02/10 01:32:18;;;;;;;1.13;0.90;;;;;;;21.08;0.00;60892.56;4852860;28;20488;-88
2022/02/10 01:34:58;;;;;;;1.40;0.90;;;;;;;-145.06;0.00;60892.56;4836512;28;20113;-88
2022/02/10 01:37:38;;;;;;;1.42;1.08;;;;;;;-145.06;0.00;60892.56;4823625;28;20858;-87
2022/02/10 01:58:04;;;;;;;2.65;1.58;;;;;;;4.84;0.00;60892.56;4834919;28;20038;-89
2022/02/10 02:03:41;;;;;;;2.53;1.55;;;;;;;-145.06;0.00;60892.56;4837127;28;20034;-89
2022/02/10 02:06:24;;;;;;;2.60;1.80;;;;;;;-145.06;0.00;60892.56;4834509;28;20034;-89
2022/02/10 02:09:09;;;;;;;2.95;1.90;;;;;;;-145.06;0.00;60892.56;4837265;28;20109;-88
2022/02/10 02:11:52;;;;;;;2.75;1.52;;;;;;;-145.06;0.00;60892.56;4833824;28;20037;-88
2022/02/10 02:14:31;;;;;;;2.30;1.65;;;;;;;-145.06;0.00;60892.56;4838260;28;20030;-88
2022/02/10 02:17:10;;;;;;;4.43;2.00;;;;;;;4.35;0.00;60892.56;4839139;28;20109;-88
2022/02/10 02:19:49;;;;;;;2.05;1.40;;;;;;;10.68;0.00;60892.56;4838604;28;20277;-88
2022/02/10 02:22:28;;;;;;;2.00;1.40;;;;;;;-145.06;0.00;60892.56;4850231;28;20042;-87
2022/02/10 02:25:08;;;;;;;2.30;1.40;;;;;;;-145.06;0.00;60892.56;4831874;28;20280;-89
2022/02/10 02:27:51;;;;;;;3.22;1.48;;;;;;;-145.06;0.00;60892.56;4839315;28;20269;-88
2022/02/10 02:30:41;;;;;;;2.15;1.33;;;;;;;-145.06;0.00;60892.56;4819248;28;20121;-89
2022/02/10 03:05:29;;;;;;;2.05;1.40;;;;;;;-145.06;0.00;60892.56;4824760;28;20030;-88
2022/02/10 03:08:15;;;;;;;2.13;1.30;;;;;;;-145.06;0.00;60892.56;4846000;28;20029;-88
2022/02/10 03:11:03;;;;;;;2.17;1.23;;;;;;;4.12;0.00;60892.56;4830803;28;20030;-89
2022/02/10 03:13:49;;;;;;;1.63;1.17;;;;;;;-145.06;0.00;60892.56;4821770;28;20382;-88
2022/02/10 04:01:42;;;;;;;1.48;1.10;;;;;;;3.69;0.00;60892.56;4836928;28;20022;-88
2022/02/10 04:07:16;;;;;;;1.23;1.00;;;;;;;-145.06;0.00;60892.56;4834312;28;20034;-89
2022/02/10 04:15:32;;;;;;;2.17;1.30;;;;;;;4.19;0.00;60892.56;4830127;28;20034;-89
2022/02/10 04:26:40;;;;;;;1.20;0.98;;;;;;;-145.06;0.00;60892.56;4834135;28;20026;-88
2022/02/10 04:29:37;;;;;;;1.70;1.10;;;;;;;-145.06;0.00;60892.56;4834363;28;20041;-89
2022/02/10 05:21:16;;;;;;;1.85;1.30;;;;;;;10.68;0.00;60892.56;4848967;28;20633;-88
2022/02/10 05:35:34;;;;;;;;;;;;;;;;;;;;;
2022/02/10 05:38:17;;;;;;;1.23;0.88;;;;;;;-145.06;0.00;60892.56;4838690;28;20034;-88
2022/02/10 05:51:09;;;;;;;1.77;1.00;;;;;;;-145.06;0.00;60892.56;4839177;28;20041;-88
2022/02/10 05:56:18;;;;;;;3.72;1.45;;;;;;;-145.06;0.00;60892.56;4832293;28;20030;-87
2022/02/10 06:57:03;;;;;;;6.47;2.60;;;;;;;-145.06;0.00;60892.56;4836741;28;20105;-89
2022/02/10 07:17:11;;;;;;;4.63;2.40;;;;;;;-145.06;0.00;60892.56;4823904;28;20026;-88
2022/02/10 07:55:57;;;;;;;4.30;2.67;;;;;;;-145.06;0.00;60892.56;4838531;28;20038;-87
2022/02/10 08:56:50;;;;;;;6.82;4.30;;;;;;;-145.06;0.00;60892.56;4831555;28;20041;-90
2022/02/10 08:59:59;;;;;;;5.10;3.55;;;;;;;8.08;0.00;60892.56;4834841;28;20033;-90
2022/02/10 09:11:37;;;;;;;6.88;3.95;;;;;;;-145.06;0.00;60892.56;4833684;28;20030;-89
2022/02/10 09:14:27;;;;;;;8.02;4.03;;;;;;;-145.06;0.00;60892.56;4834935;28;20064;-90
2022/02/10 09:20:14;;;;;;;9.18;4.78;;;;;;;-145.06;0.00;60892.56;4832418;28;20026;-91
2022/02/10 09:58:00;;;;;;;5.85;4.28;;;;;;;-145.06;0.00;60892.56;4842922;28;20456;-90
2022/02/10 10:03:37;;;;;;;7.15;4.15;;;;;;;-145.06;0.00;60892.56;4835603;28;20026;-91
2022/02/10 10:06:23;;;;;;;6.57;4.00;;;;;;;-145.06;0.00;60892.56;4834297;28;20026;-91
2022/02/10 10:24:29;;;;;;;6.78;4.25;;;;;;;-145.06;0.00;60892.56;4828082;28;20022;-90
2022/02/10 10:27:30;;;;;;;6.13;3.55;;;;;;;-145.06;0.00;60892.56;4835285;28;20025;-90
2022/02/10 10:46:46;;;;;;;5.60;3.25;;;;;;;187.52;0.00;60892.56;4839028;28;20030;-89
2022/02/10 10:51:24;;;;;;;5.30;3.10;;;;;;;9.16;0.00;60892.56;4830433;28;20045;-91
2022/02/10 10:56:46;;;;;;;4.03;2.70;;;;;;;-145.06;0.00;60892.56;4833599;28;20037;-91
2022/02/10 11:38:41;;;;;;;3.63;2.53;;;;;;;-145.06;0.00;60892.56;4834230;28;20022;-90
2022/02/10 13:02:46;;;;;;;3.55;2.55;;;;;;;-145.06;0.00;60892.56;4835809;28;20026;-89
2022/02/10 13:24:04;;;;;;;;;;;;;;;-145.06;0.00;60892.56;4841602;28;20030;-89
2022/02/10 14:12:01;;;;;;;2.30;1.20;;;;;;;-145.06;0.00;60892.56;4837546;28;20022;-88
2022/02/10 14:17:13;;;;;;;1.67;1.25;;;;;;;-145.06;0.00;60892.56;4836223;28;20022;-88
2022/02/10 14:20:00;;;;;;;1.40;1.20;;;;;;;-145.06;0.00;60892.56;4833237;28;20033;-89
2022/02/10 14:22:52;;;;;;;4.10;1.38;;;;;;;-145.06;0.00;60892.56;4846938;28;20057;-88
2022/02/10 14:28:29;;;;;;;1.60;0.90;;;;;;;-145.06;0.00;60892.56;4853384;28;20029;-89
2022/02/10 14:31:09;;;;;;;;;;;;;;;-145.06;0.00;60892.56;4842357;28;20471;-88
2022/02/10 14:33:49;;;;;;;;;;;;;;;-145.06;0.00;60892.56;4830498;28;19918;-88
2022/02/10 14:36:40;;;;;;;2.25;1.10;;;;;;;-145.06;0.00;60892.56;4845179;28;19913;-88
2022/02/10 14:39:49;;;;;;;0.98;0.85;;;;;;;-145.06;0.00;60892.56;4836529;28;20030;-89
2022/02/10 16:11:01;;;;;;;1.35;1.00;;;;;;;-145.06;0.00;60892.56;4836327;28;20061;-88
2022/02/10 16:17:03;;;;;;;0.88;0.80;;;;;;;-145.06;0.00;60892.56;4836029;28;20377;-88
2022/02/10 16:19:45;;;;;;;0.80;0.80;;;;;;;187.52;0.00;60892.56;4838542;28;20037;-88
2022/02/10 16:22:26;;;;;;;1.27;0.90;;;;;;;-145.06;0.00;60892.56;4844660;28;20491;-88
2022/02/10 16:25:09;;;;;;;1.13;0.70;;;;;;;-145.06;0.00;60892.56;4867736;28;20022;-88
2022/02/10 16:27:55;;;;;;;2.05;0.80;;;;;;;-145.06;0.00;60892.56;4829962;28;20923;-88
2022/02/10 16:30:38;;;;;;;0.63;0.60;;;;;;;-145.06;0.00;60892.56;4837112;28;20487;-89
2022/02/10 16:33:17;;;;;;;0.85;0.70;;;;;;;8.30;0.00;60892.56;4833940;28;20034;-89
2022/02/10 16:35:56;;;;;;;1.10;0.70;;;;;;;8.33;0.00;60892.56;4836347;28;20038;-88
2022/02/10 16:38:35;;;;;;;1.73;0.80;;;;;;;8.29;0.00;60892.56;4833035;28;20041;-89
2022/02/10 16:41:15;;;;;;;0.90;0.80;;;;;;;-145.06;0.00;60892.56;4838286;28;20030;-89
2022/02/10 16:43:54;;;;;;;;;;;;;;;-145.06;0.00;60892.56;4836015;28;20022;-88
2022/02/10 16:46:33;;;;;;;0.97;0.70;;;;;;;-145.06;0.00;60892.56;4835632;28;19916;-89
2022/02/10 16:49:16;;;;;;;0.85;0.73;;;;;;;-145.06;0.00;60892.56;4841144;28;20038;-89
2022/02/10 16:51:56;;;;;;;0.52;0.50;;;;;;;8.73;0.00;60892.56;4835885;28;20038;-89
2022/02/10 16:54:41;;;;;;;1.60;0.90;;;;;;;-145.06;0.00;60892.56;4834456;28;20100;-88
2022/02/10 17:00:44;;;;;;;0.57;0.52;;;;;;;-145.06;0.00;60892.56;4834026;28;20034;-89
2022/02/10 17:15:21;;;;;;;2.08;1.02;;;;;;;8.08;0.00;60892.56;4831679;28;20027;-89
2022/02/10 17:18:19;;;;;;;2.13;0.90;;;;;;;8.08;0.00;60892.56;4833773;28;20026;-87
2022/02/10 17:21:02;;;;;;;0.70;0.50;;;;;;;-145.06;0.00;60892.56;4830894;28;20021;-88
2022/02/10 17:51:23;;;;;;;1.10;0.80;;;;;;;-145.06;0.00;60892.56;4837068;28;20065;-89
2022/02/10 17:53:00;;;;;;;0.98;0.68;;;;;;;-145.06;0.00;60892.56;4838954;28;20124;-88
2022/02/10 17:55:39;;;;;;;0.90;0.80;;;;;;;-145.06;0.00;60892.56;4845751;28;20022;-89
2022/02/10 17:58:22;;;;;;;1.00;0.90;;;;;;;-145.06;0.00;60892.56;4840637;28;20038;-89
2022/02/10 18:01:03;;;;;;;1.00;0.90;;;;;;;8.41;0.00;60892.56;4847064;28;20034;-88
2022/02/10 18:03:42;;;;;;;1.73;1.10;;;;;;;-145.06;0.00;60892.56;4838757;28;20480;-88
2022/02/10 18:06:31;;;;;;;1.77;1.07;;;;;;;-145.06;0.00;60892.56;4842376;28;20597;-89
2022/02/10 18:20:19;;;;;;;1.30;0.90;;;;;;;175.81;0.00;60892.56;4843618;28;20026;-89
2022/02/10 18:23:12;;;;;;;1.25;0.90;;;;;;;-145.06;0.00;60892.56;4827868;28;20030;-87
2022/02/10 18:25:58;;;;;;;;;;;;;;;;;;;;;
2022/02/10 18:28:51;;;;;;;1.63;1.03;;;;;;;-145.06;0.00;60892.56;4842135;28;20017;-89
2022/02/10 19:05:29;;;;;;;3.33;1.70;;;;;;;-145.06;0.00;60892.56;4830322;28;20030;-89
2022/02/10 19:07:02;;;;;;;1.95;1.25;;;;;;;-145.06;0.00;60892.56;4829031;28;20034;-89
2022/02/10 19:09:45;;;;;;;2.17;1.67;;;;;;;-145.06;0.00;60892.56;4831224;28;20034;-88
2022/02/10 19:12:27;;;;;;;3.03;2.00;;;;;;;7.80;0.00;60892.56;4835264;28;20045;-88
2022/02/10 19:15:14;;;;;;;2.38;1.90;;;;;;;187.52;0.00;60892.56;4832728;28;20372;-89
2022/02/10 19:17:53;;;;;;;2.35;1.70;;;;;;;-145.06;0.00;60892.56;4830469;28;20034;-88
2022/02/10 19:20:34;;;;;;;2.10;1.67;;;;;;;-145.06;0.00;60892.56;4832571;28;20037;-88
2022/02/10 19:23:13;;;;;;;1.92;1.10;;;;;;;-145.06;0.00;60892.56;4834778;28;20300;-89
2022/02/10 19:25:51;;;;;;;1.42;1.00;;;;;;;-145.06;0.00;60892.56;4828865;28;20038;-88
2022/02/10 19:28:30;;;;;;;0.85;0.80;;;;;;;-145.06;0.00;60892.56;4845992;28;20034;-88
2022/02/10 19:31:11;;;;;;;1.20;0.88;;;;;;;-145.06;0.00;60892.56;4827561;28;20038;-87
2022/02/10 19:33:51;;;;;;;1.33;0.52;;;;;;;-145.06;0.00;60892.56;4827691;28;20136;-88
2022/02/10 19:36:32;;;;;;;1.33;0.55;;;;;;;-145.06;0.00;60892.56;4841595;28;20041;-88
2022/02/10 19:39:16;;;;;;;0.70;0.55;;;;;;;8.08;0.00;60892.56;4825885;28;20033;-88
2022/02/10 19:41:55;;;;;;;0.90;0.50;;;;;;;-145.06;0.00;60892.56;4830371;28;20042;-88
2022/02/10 19:44:35;;;;;;;0.65;0.65;;;;;;;-145.06;0.00;60892.56;4822743;28;20464;-88
2022/02/10 19:47:13;;;;;;;1.90;0.60;;;;;;;-145.06;0.00;60892.56;4821336;28;20049;-88
2022/02/10 19:49:53;;;;;;;0.80;0.50;;;;;;;6.75;0.00;60892.56;4841100;28;21142;-88
2022/02/10 19:52:33;;;;;;;1.13;0.60;;;;;;;-145.06;0.00;60892.56;4843566;28;20292;-88
2022/02/10 19:55:17;;;;;;;;;;;;;;;-145.06;0.00;60892.56;4831222;28;20631;-88
2022/02/10 19:58:04;;;;;;;0.73;0.40;;;;;;;-145.06;0.00;60892.56;4834237;28;19917;-88
2022/02/10 20:00:45;;;;;;;2.00;0.70;;;;;;;-145.06;0.00;60892.56;4827982;28;20033;-88
2022/02/10 20:03:27;;;;;;;1.58;0.65;;;;;;;-145.06;0.00;60892.56;4832649;28;20038;-88
2022/02/10 20:06:06;;;;;;;1.40;0.70;;;;;;;-145.06;0.00;60892.56;4834927;28;20038;-88
2022/02/10 20:08:47;;;;;;;1.25;0.70;;;;;;;-145.06;0.00;60892.56;4832400;28;20037;-87
2022/02/10 20:11:26;;;;;;;1.10;0.90;;;;;;;-145.06;0.00;60892.56;4832538;28;20396;-88
2022/02/10 20:14:05;;;;;;;0.60;0.50;;;;;;;-145.06;0.00;60892.56;4834785;28;20112;-88
2022/02/10 20:16:44;;;;;;;0.50;0.50;;;;;;;-145.06;0.00;60892.56;4824453;28;20034;-86
2022/02/10 20:19:25;;;;;;;0.40;0.40;;;;;;;-145.06;0.00;60892.56;4833468;28;20265;-87
2022/02/10 20:22:05;;;;;;;0.68;0.50;;;;;;;-145.06;0.00;60892.56;4831591;28;20037;-88
2022/02/10 20:24:45;;;;;;;1.17;0.40;;;;;;;-145.06;0.00;60892.56;4832131;28;20030;-87
2022/02/10 20:27:25;;;;;;;0.95;0.50;;;;;;;-145.06;0.00;60892.56;4849767;28;20116;-88
2022/02/10 20:30:06;;;;;;;0.82;0.38;;;;;;;10.68;0.00;60892.56;4831701;28;20038;-87
2022/02/10 20:32:46;;;;;;;0.77;0.57;;;;;;;-145.06;0.00;60892.56;4831433;28;20037;-88
2022/02/10 20:35:24;;;;;;;0.43;0.43;;;;;;;-145.06;0.00;60892.56;4830696;28;20037;-88
2022/02/10 20:38:04;;;;;;;0.43;0.40;;;;;;;-145.06;0.00;60892.56;4836275;28;20038;-88
2022/02/10 20:40:45;;;;;;;0.60;0.45;;;;;;;5.47;0.00;60892.56;4831372;28;20037;-87
2022/02/10 20:43:25;;;;;;;1.65;0.52;;;;;;;-145.06;0.00;60892.56;4848051;28;20034;-88
2022/02/10 20:46:09;;;;;;;0.93;0.43;;;;;;;-145.06;0.00;60892.56;4832969;28;20034;-88
2022/02/10 20:48:48;;;;;;;0.77;0.50;;;;;;;5.34;0.00;60892.56;4836153;28;20049;-87
2022/02/10 20:51:27;;;;;;;1.23;0.47;;;;;;;5.28;0.00;60892.56;4836847;28;20034;-88
2022/02/10 20:54:06;;;;;;;0.80;0.50;;;;;;;-145.06;0.00;60892.56;4851725;28;20037;-89
2022/02/10 20:56:45;;;;;;;2.38;0.60;;;;;;;-145.06;0.00;60892.56;4852258;28;20030;-88
2022/02/10 21:02:12;;;;;;;0.50;0.40;;;;;;;-145.06;0.00;60892.56;4837474;28;20030;-88
2022/02/10 21:04:56;;;;;;;1.05;0.50;;;;;;;-145.06;0.00;60892.56;4833164;28;20296;-87
2022/02/10 21:07:44;;;;;;;0.57;0.50;;;;;;;-145.06;0.00;60892.56;4849858;28;20650;-88
2022/02/10 21:10:25;;;;;;;3.15;0.80;;;;;;;5.14;0.00;60892.56;4854492;28;20030;-88
2022/02/10 21:13:05;;;;;;;;;;;;;;;-145.06;0.00;60892.56;4838174;28;20034;-88
2022/02/10 21:15:44;;;;;;;;;;;;;;;-145.06;0.00;60892.56;4834467;28;19925;-88
2022/02/10 21:18:25;;;;;;;1.48;0.80;;;;;;;-145.06;0.00;60892.56;4851868;28;19917;-87
2022/02/10 21:21:09;;;;;;;1.77;0.80;;;;;;;-145.06;0.00;60892.56;4836330;28;20117;-89
2022/02/10 21:24:12;;;;;;;0.68;0.60;;;;;;;-145.06;0.00;60892.56;4832765;28;20029;-86
2022/02/10 21:27:24;;;;;;;0.60;0.50;;;;;;;-145.06;0.00;60892.56;4834934;28;20030;-86
2022/02/10 21:30:04;;;;;;;0.75;0.60;;;;;;;-145.06;0.00;60892.56;4832600;28;20034;-87
2022/02/10 21:32:48;;;;;;;0.43;0.40;;;;;;;-145.06;0.00;60892.56;4836639;28;20451;-87
2022/02/10 21:38:22;;;;;;;0.52;0.38;;;;;;;-145.06;0.00;60892.56;4830268;28;20033;-86
2022/02/10 21:52:50;;;;;;;0.52;0.40;;;;;;;-145.06;0.00;60892.56;4831801;28;20054;-87
2022/02/10 21:55:46;;;;;;;0.75;0.52;;;;;;;-145.06;0.00;60892.56;4822491;28;20038;-86
2022/02/10 21:59:14;;;;;;;0.40;0.40;;;;;;;-145.06;0.00;60892.56;4828778;28;20034;-87
2022/02/10 22:10:57;;;;;;;1.15;0.60;;;;;;;-145.06;0.00;60892.56;4832682;28;20022;-87
2022/02/10 22:19:41;;;;;;;0.60;0.60;;;;;;;-145.06;0.00;60892.56;4832313;28;20033;-87
2022/02/10 22:22:24;;;;;;;1.70;0.70;;;;;;;-145.06;0.00;60892.56;4845745;28;20034;-87
2022/02/10 22:25:09;;;;;;;1.27;0.90;;;;;;;-145.06;0.00;60892.56;4848010;28;20026;-87
2022/02/10 22:27:50;;;;;;;0.88;0.70;;;;;;;-145.06;0.00;60892.56;4827406;28;20480;-87
2022/02/10 22:30:42;;;;;;;0.75;0.75;;;;;;;-145.06;0.00;60892.56;4845494;28;20053;-87
2022/02/10 22:36:21;;;;;;;1.25;1.15;;;;;;;-145.06;0.00;60892.56;4825913;28;20037;-86
2022/02/10 22:39:01;;;;;;;0.85;0.85;;;;;;;-145.06;0.00;60892.56;4834110;28;20033;-87
2022/02/10 22:41:40;;;;;;;1.10;1.00;;;;;;;-145.06;0.00;60892.56;4835134;28;20030;-87
2022/02/10 22:44:19;;;;;;;1.40;1.00;;;;;;;187.52;0.00;60892.56;4840561;28;20070;-87
2022/02/10 22:47:01;;;;;;;1.27;1.03;;;;;;;-145.06;0.00;60892.56;4829232;28;20038;-87
2022/02/10 22:49:40;;;;;;;0.88;0.88;;;;;;;-145.06;0.00;60892.56;4847944;28;20033;-87
2022/02/10 22:52:18;;;;;;;1.27;1.17;;;;;;;4.11;0.00;60892.56;4835863;28;20037;-87
2022/02/10 22:54:57;;;;;;;1.20;1.10;;;;;;;5.49;0.00;60892.56;4844341;28;20037;-88
2022/02/10 22:57:37;;;;;;;1.48;1.30;;;;;;;4.19;0.00;60892.56;4838351;28;20046;-88
2022/02/10 23:00:29;;;;;;;1.35;1.20;;;;;;;-145.06;0.00;60892.56;4832548;28;20038;-87
2022/02/10 23:03:08;;;;;;;1.08;0.98;;;;;;;-145.06;0.00;60892.56;4827780;28;20029;-87
2022/02/10 23:05:48;;;;;;;1.30;1.20;;;;;;;4.19;0.00;60892.56;4829505;28;20467;-87
2022/02/10 23:08:27;;;;;;;1.15;1.05;;;;;;;-145.06;0.00;60892.56;4851390;28;20583;-87
2022/02/10 23:11:06;;;;;;;1.20;1.10;;;;;;;-145.06;0.00;60892.56;4833116;28;20033;-88
2022/02/10 23:13:46;;;;;;;1.13;1.00;;;;;;;4.19;0.00;60892.56;4849804;28;20284;-87
2022/02/10 23:16:28;;;;;;;1.23;0.80;;;;;;;-145.06;0.00;60892.56;4836846;28;20037;-86
2022/02/10 23:19:08;;;;;;;0.80;0.80;;;;;;;4.19;0.00;60892.56;4837196;28;20618;-87
2022/02/10 23:21:47;;;;;;;;;;;;;;;-145.06;0.00;60892.56;4838126;28;20030;-88
2022/02/10 23:24:26;;;;;;;1.10;1.00;;;;;;;-145.06;0.00;60892.56;4847923;28;19918;-86
2022/02/10 23:27:05;;;;;;;1.30;0.85;;;;;;;10.68;0.00;60892.56;4864753;28;20041;-87
2022/02/10 23:29:45;;;;;;;1.25;0.80;;;;;;;-145.06;0.00;60892.56;4827123;28;20117;-87
2022/02/10 23:32:23;;;;;;;1.17;0.70;;;;;;;3.94;0.00;60892.56;4836996;28;20369;-87
2022/02/10 23:35:09;;;;;;;1.33;0.93;;;;;;;-145.06;0.00;60892.56;4835962;28;20476;-88
2022/02/10 23:37:48;;;;;;;1.95;0.95;;;;;;;-145.06;0.00;60892.56;4848494;28;20026;-87
2022/02/10 23:40:44;;;;;;;1.30;0.70;;;;;;;-145.06;0.00;60892.56;4840906;28;20506;-87
2022/02/10 23:43:24;;;;;;;1.23;0.90;;;;;;;-145.06;0.00;60892.56;4830139;28;20026;-87
2022/02/10 23:46:03;;;;;;;0.83;0.77;;;;;;;3.97;0.00;60892.56;4849885;28;20021;-88
2022/02/10 23:48:42;;;;;;;1.10;1.00;;;;;;;-145.06;0.00;60892.56;4830946;28;20276;-87
2022/02/10 23:51:27;;;;;;;1.00;0.90;;;;;;;-145.06;0.00;60892.56;4841162;28;20037;-87
2022/02/10 23:54:07;;;;;;;0.75;0.75;;;;;;;4.00;0.00;60892.56;4833068;28;20285;-87
2022/02/10 23:56:52;;;;;;;1.38;1.27;;;;;;;21.08;0.00;60892.56;4836230;28;20065;-88
